createdAt,value
2023-04-01T09:00:15.491Z,48.8648
2023-04-01T09:01:17.373Z,48.7586
2023-04-01T09:02:19.425Z,48.6107
2023-04-01T09:03:21.307Z,48.6663
2023-04-01T09:04:23.156Z,48.6885
2023-04-01T09:05:25.116Z,48.6480
2023-04-01T09:06:26.989Z,48.5676
2023-04-01T09:07:29.929Z,48.6678
2023-04-01T09:08:30.774Z,48.6867
2023-04-01T09:09:32.702Z,48.6942
2023-04-01T09:10:34.663Z,48.8404
2023-04-01T09:11:36.574Z,48.6111
2023-04-01T09:12:38.528Z,48.6984
2023-04-01T09:13:40.356Z,48.4743
2023-04-01T09:14:42.227Z,48.5145
2023-04-01T09:15:44.324Z,48.4722
2023-04-01T09:16:46.075Z,48.4057
2023-04-01T09:17:48.139Z,48.3956
2023-04-01T09:18:50.054Z,48.4621
2023-04-01T09:19:51.884Z,48.3841
2023-04-01T09:20:53.733Z,48.3460
2023-04-01T09:21:56.901Z,48.2801
2023-04-01T09:22:57.583Z,48.3286
2023-04-01T09:23:59.819Z,48.2896
2023-04-01T09:25:01.392Z,48.2795
2023-04-01T09:26:03.306Z,48.2611
2023-04-01T09:27:05.201Z,48.2648
2023-04-01T09:28:07.330Z,48.2674
2023-04-01T09:29:09.046Z,48.2372
2023-04-01T09:30:10.976Z,48.2231
2023-04-01T09:31:12.885Z,48.2396
2023-04-01T09:32:14.772Z,48.2095
2023-04-01T09:33:16.919Z,48.1850
2023-04-01T09:34:18.616Z,48.5684
2023-04-01T09:35:20.722Z,48.2539
2023-04-01T09:36:22.433Z,48.2162
2023-04-01T09:37:24.364Z,48.4442
2023-04-01T09:38:26.225Z,48.4718
2023-04-01T09:39:28.140Z,48.5065
2023-04-01T09:40:30.167Z,48.4972
2023-04-01T09:41:31.981Z,48.4991
2023-04-01T09:42:33.886Z,48.4917
2023-04-01T09:43:35.892Z,48.4973
2023-04-01T09:44:37.720Z,48.4885
2023-04-01T09:45:39.614Z,48.4880
2023-04-01T09:46:41.873Z,48.5075
2023-04-01T09:47:43.514Z,48.4777
2023-04-01T09:48:45.546Z,48.4955
2023-04-01T09:49:47.243Z,48.4832
2023-04-01T09:50:49.297Z,48.4292
2023-04-01T09:51:51.069Z,48.4129
2023-04-01T09:52:53.017Z,48.3959
2023-04-01T09:53:54.909Z,48.3707
2023-04-01T09:54:56.831Z,48.3669
2023-04-01T09:55:58.741Z,48.3496
2023-04-01T09:57:00.658Z,48.3061
2023-04-01T09:58:02.611Z,48.2962
2023-04-01T09:59:04.458Z,48.3010
2023-04-01T10:00:06.403Z,48.2494
2023-04-01T10:01:08.268Z,48.2295
2023-04-01T10:02:10.312Z,48.2191
2023-04-01T10:03:12.171Z,48.2169
2023-04-01T10:04:14.115Z,48.1885
2023-04-01T10:05:15.984Z,48.1702
2023-04-01T10:06:17.865Z,48.1604
2023-04-01T10:07:19.900Z,48.1555
2023-04-01T10:08:21.690Z,48.1265
2023-04-01T10:09:23.804Z,48.0979
2023-04-01T10:10:25.529Z,48.0812
2023-04-01T10:11:27.410Z,48.0762
2023-04-01T10:12:29.356Z,48.0759
2023-04-01T10:13:31.267Z,48.0907
2023-04-01T10:14:33.274Z,48.0907
2023-04-01T10:15:35.273Z,48.0535
2023-04-01T10:16:39.470Z,48.1403
2023-04-01T10:17:38.931Z,48.1146
2023-04-01T10:29:19.224Z,45.7769
2023-04-01T10:30:21.123Z,46.1283
2023-04-01T10:31:23.050Z,46.3860
2023-04-01T10:32:24.958Z,46.9455
2023-04-01T10:33:27.013Z,47.3624
2023-04-01T10:34:28.758Z,47.3131
2023-04-01T10:35:30.763Z,47.4339
2023-04-01T10:36:32.696Z,47.2538
2023-04-01T10:37:34.671Z,47.3628
2023-04-01T10:38:36.505Z,47.4582
2023-04-01T10:39:38.581Z,49.8631
2023-04-01T10:40:40.702Z,47.6872
2023-04-01T10:41:42.468Z,47.3935
2023-04-01T10:42:44.360Z,47.5143
2023-04-01T10:43:47.328Z,47.7061
2023-04-01T10:48:08.163Z,47.2967
2023-04-01T10:49:10.014Z,47.0404
2023-04-01T10:54:40.153Z,45.5656
2023-04-01T11:02:25.333Z,43.4555
2023-04-01T11:15:30.691Z,45.7579
2023-04-01T11:21:41.928Z,44.5746
2023-04-01T11:22:43.664Z,45.5113
2023-04-01T11:23:49.296Z,46.2476
2023-04-01T11:24:47.521Z,46.7168
2023-04-01T11:25:49.376Z,46.6821
2023-04-01T11:26:51.380Z,47.2627
2023-04-01T11:27:53.222Z,47.4806
2023-04-01T11:28:55.303Z,47.5897
2023-04-01T11:30:00.498Z,47.6690
2023-04-01T11:30:59.242Z,47.5950
2023-04-01T11:32:00.859Z,47.2581
2023-04-01T11:33:02.970Z,47.6081
2023-04-01T11:34:04.664Z,47.6185
2023-04-01T11:35:07.037Z,47.5528
2023-04-01T11:36:08.573Z,47.2888
2023-04-01T11:37:12.587Z,47.2034
2023-04-01T11:38:12.380Z,47.3587
2023-04-01T11:39:14.728Z,47.6668
2023-04-01T11:40:16.127Z,47.3326
2023-04-01T11:41:18.773Z,46.9053
2023-04-01T11:42:19.956Z,47.0192
2023-04-01T11:43:32.426Z,47.1439
2023-04-01T11:44:23.807Z,46.8661
2023-04-01T11:45:26.544Z,46.9193
2023-04-01T11:46:27.625Z,46.9446
2023-04-01T11:47:29.640Z,47.0999
2023-04-01T11:48:31.498Z,47.1479
2023-04-01T11:49:33.364Z,46.9757
2023-04-01T11:50:35.364Z,46.8712
2023-04-01T11:51:37.155Z,47.3170
2023-04-01T11:52:39.272Z,46.8398
2023-04-01T11:53:40.993Z,46.8950
2023-04-01T11:54:42.893Z,46.8643
2023-04-01T11:55:45.003Z,46.7113
2023-04-01T11:56:46.759Z,47.2675
2023-04-01T11:57:48.624Z,47.2497
2023-04-01T11:58:50.522Z,47.3809
2023-04-01T11:59:52.484Z,47.1032
2023-04-01T12:00:54.334Z,46.9204
2023-04-01T12:01:56.347Z,47.3329
2023-04-01T12:02:58.301Z,47.4227
2023-04-01T12:04:01.367Z,46.9331
2023-04-01T12:05:02.105Z,46.6650
2023-04-01T12:06:03.955Z,46.6753
2023-04-01T12:07:05.867Z,46.5804
2023-04-01T12:08:07.731Z,46.5864
2023-04-01T12:09:09.786Z,46.4920
2023-04-01T12:10:11.671Z,46.3914
2023-04-01T12:11:13.446Z,46.4354
2023-04-01T12:12:15.387Z,46.4487
2023-04-01T12:13:17.241Z,46.5227
2023-04-01T12:14:19.219Z,46.5326
2023-04-01T12:15:21.182Z,46.4468
2023-04-01T12:16:23.035Z,46.6074
2023-04-01T12:17:25.028Z,46.8921
2023-04-01T12:18:26.812Z,46.3085
2023-04-01T12:19:28.724Z,46.1502
2023-04-01T12:20:30.643Z,46.6417
2023-04-01T12:21:32.537Z,47.4360
2023-04-01T12:22:34.577Z,47.1078
2023-04-01T12:23:36.349Z,46.8077
2023-04-01T12:24:38.312Z,46.5854
2023-04-01T12:25:40.160Z,46.5574
2023-04-01T12:26:42.164Z,46.5839
2023-04-01T12:27:43.976Z,46.4805
2023-04-01T12:28:46.044Z,46.4793
2023-04-01T12:29:47.820Z,46.4596
2023-04-01T12:30:49.742Z,46.5055
2023-04-01T12:31:51.785Z,46.7374
2023-04-01T12:32:53.738Z,46.5210
2023-04-01T12:33:55.416Z,46.3197
2023-04-01T12:34:57.426Z,46.2665
2023-04-01T12:35:59.451Z,46.2821
2023-04-01T12:37:01.165Z,46.3249
2023-04-01T12:38:03.063Z,46.1906
2023-04-01T12:39:04.976Z,46.1822
2023-04-01T12:40:07.012Z,46.1328
2023-04-01T12:41:08.793Z,46.0854
2023-04-01T12:42:10.686Z,46.1294
2023-04-01T12:43:12.604Z,46.0737
2023-04-01T12:44:14.625Z,46.1400
2023-04-01T12:45:16.555Z,46.2539
2023-04-01T12:46:18.396Z,46.2896
2023-04-01T12:47:20.236Z,46.1800
2023-04-01T12:48:22.455Z,46.1383
2023-04-01T12:49:24.077Z,46.1618
2023-04-01T12:50:25.938Z,46.1784
2023-04-01T12:51:28.065Z,46.1764
2023-04-01T12:52:29.784Z,46.1914
2023-04-01T12:53:31.680Z,46.2155
2023-04-01T12:54:33.571Z,46.2189
2023-04-01T12:55:35.715Z,46.2198
2023-04-01T12:56:37.375Z,46.2554
2023-04-01T12:57:39.365Z,46.2539
2023-04-01T12:58:41.389Z,46.2434
2023-04-01T12:59:43.075Z,46.3455
2023-04-01T13:00:45.275Z,46.3287
2023-04-01T13:01:46.913Z,46.3129
2023-04-01T13:02:48.916Z,46.3520
2023-04-01T13:03:50.732Z,46.3905
2023-04-01T13:04:52.636Z,46.3662
2023-04-01T13:05:54.746Z,46.3539
2023-04-01T13:06:56.436Z,46.3717
2023-04-01T13:07:58.446Z,46.3160
2023-04-01T13:09:00.339Z,46.5018
2023-04-01T13:10:02.307Z,46.8826
2023-04-01T13:11:04.062Z,46.7174
2023-04-01T13:12:06.017Z,46.5925
2023-04-01T13:13:07.914Z,46.7610
2023-04-01T13:14:13.749Z,46.6704
2023-04-01T13:15:11.719Z,46.6580
2023-04-01T13:16:13.624Z,46.5954
2023-04-01T13:17:15.484Z,46.4868
2023-04-01T13:18:17.384Z,46.5709
2023-04-01T13:19:19.328Z,46.5221
2023-04-01T13:20:21.184Z,46.5380
2023-04-01T13:21:23.279Z,46.4869
2023-04-01T13:22:25.042Z,46.4555
2023-04-01T13:23:27.021Z,46.3511
2023-04-01T13:24:28.851Z,46.4397
2023-04-01T13:25:30.750Z,46.4341
2023-04-01T13:26:32.625Z,46.4344
2023-04-01T13:27:34.581Z,46.3595
2023-04-01T13:28:38.199Z,46.2442
2023-04-01T13:29:38.536Z,46.2493
2023-04-01T13:30:40.269Z,46.2410
2023-04-01T13:31:42.330Z,46.2609
2023-04-01T13:32:44.292Z,46.3130
2023-04-01T13:33:45.991Z,46.3285
2023-04-01T13:34:49.001Z,46.4413
2023-04-01T13:35:49.843Z,46.2683
2023-04-01T13:36:51.708Z,46.3585
2023-04-01T13:37:53.697Z,46.4952
2023-04-01T13:38:55.497Z,46.8878
2023-04-01T13:39:57.609Z,46.8862
2023-04-01T13:41:03.678Z,46.9437
2023-04-01T13:42:02.283Z,47.0049
2023-04-01T13:43:03.517Z,47.1504
2023-04-01T13:44:05.372Z,47.3200
2023-04-01T13:45:07.790Z,47.2602
2023-04-01T13:46:09.002Z,47.2494
2023-04-01T13:47:10.791Z,47.3040
2023-04-01T13:48:14.748Z,47.4023
2023-04-01T13:49:14.561Z,47.5545
2023-04-01T13:50:16.498Z,47.7396
2023-04-01T13:51:18.438Z,48.3309
2023-04-01T13:52:20.514Z,48.0169
2023-04-01T13:53:22.194Z,47.6617
